createdAt,value
2017-11-19T00:00:04.820Z,26.43
2017-11-19T00:02:33.924Z,17.20
2017-11-19T00:05:02.983Z,12.30
2017-11-19T00:07:31.286Z,13.03
2017-11-19T00:10:00.352Z,11.93
2017-11-19T00:12:28.666Z,8.23
2017-11-19T00:14:57.748Z,12.30
2017-11-19T00:17:26.074Z,17.80
2017-11-19T00:19:54.367Z,12.13
2017-11-19T00:22:22.703Z,17.63
2017-11-19T00:24:51.771Z,18.73
2017-11-19T00:27:20.083Z,27.37
2017-11-19T00:29:48.424Z,14.20
2017-11-19T00:32:16.738Z,17.17
2017-11-19T00:34:45.052Z,17.90
2017-11-19T00:37:13.377Z,19.30
2017-11-19T00:39:41.713Z,18.13
2017-11-19T00:42:10.026Z,24.27
2017-11-19T00:44:39.084Z,18.87
2017-11-19T00:47:08.165Z,20.43
2017-11-19T00:49:36.468Z,23.60
2017-11-19T00:52:04.780Z,21.00
2017-11-19T00:54:33.846Z,12.43
2017-11-19T00:57:02.160Z,17.00
2017-11-19T00:59:30.459Z,13.97
2017-11-19T01:01:58.862Z,16.83
2017-11-19T01:04:27.169Z,17.67
2017-11-19T01:06:55.482Z,14.70
2017-11-19T01:09:23.819Z,13.60
2017-11-19T01:11:52.127Z,13.80
2017-11-19T01:14:20.426Z,14.30
2017-11-19T01:16:48.738Z,14.17
2017-11-19T01:19:17.056Z,15.30
2017-11-19T01:21:45.382Z,13.70
2017-11-19T01:24:14.492Z,16.13
2017-11-19T01:26:42.801Z,24.00
2017-11-19T01:29:11.874Z,15.20
2017-11-19T01:31:40.192Z,15.10
2017-11-19T01:34:08.496Z,19.43
2017-11-19T01:36:36.897Z,21.50
2017-11-19T01:39:05.206Z,18.00
2017-11-19T01:41:33.523Z,11.17
2017-11-19T01:44:01.824Z,21.70
2017-11-19T01:46:30.143Z,18.63
2017-11-19T01:48:58.439Z,19.67
2017-11-19T01:51:26.753Z,6.80
2017-11-19T01:53:55.083Z,19.27
2017-11-19T01:56:23.408Z,19.30
2017-11-19T01:58:51.704Z,10.13
2017-11-19T02:01:20.010Z,19.67
2017-11-19T02:03:48.334Z,12.80
2017-11-19T02:06:16.636Z,10.83
2017-11-19T02:08:45.721Z,10.90
2017-11-19T02:11:14.057Z,18.47
2017-11-19T02:13:42.367Z,10.53
2017-11-19T02:16:10.750Z,8.93
2017-11-19T02:18:39.127Z,14.93
2017-11-19T02:21:08.211Z,13.23
2017-11-19T02:23:36.528Z,16.47
2017-11-19T02:26:05.593Z,7.07
2017-11-19T02:28:33.916Z,14.33
2017-11-19T02:31:02.364Z,26.03
2017-11-19T02:33:30.680Z,13.33
2017-11-19T02:35:59.000Z,12.60
2017-11-19T02:38:27.317Z,12.00
2017-11-19T02:40:56.387Z,16.33
2017-11-19T02:43:24.763Z,13.10
2017-11-19T02:45:53.063Z,14.13
2017-11-19T02:48:22.161Z,14.90
2017-11-19T02:50:51.253Z,18.83
2017-11-19T02:53:20.328Z,12.90
2017-11-19T02:55:48.631Z,21.97
2017-11-19T02:58:17.712Z,15.57
2017-11-19T03:00:46.013Z,10.23
2017-11-19T03:03:14.331Z,16.70
2017-11-19T03:05:42.632Z,10.27
2017-11-19T03:08:11.029Z,16.80
2017-11-19T03:10:40.090Z,9.13
2017-11-19T03:13:08.412Z,19.40
2017-11-19T03:15:36.717Z,11.70
2017-11-19T03:18:05.133Z,19.13
2017-11-19T03:20:33.442Z,11.53
2017-11-19T03:23:02.543Z,18.23
2017-11-19T03:25:31.616Z,13.27
2017-11-19T03:27:59.928Z,12.00
2017-11-19T03:30:28.249Z,15.33
2017-11-19T03:32:56.701Z,17.70
2017-11-19T03:35:25.028Z,19.57
2017-11-19T03:37:53.342Z,15.97
2017-11-19T03:40:21.644Z,12.33
2017-11-19T03:42:49.957Z,19.73
2017-11-19T03:45:18.275Z,8.93
2017-11-19T03:47:46.580Z,8.43
2017-11-19T03:50:14.869Z,19.03
2017-11-19T03:52:43.935Z,12.47
2017-11-19T03:55:12.257Z,18.60
2017-11-19T03:57:40.559Z,11.10
2017-11-19T04:00:09.618Z,14.80
2017-11-19T04:02:37.910Z,10.57
2017-11-19T04:05:06.217Z,16.20
2017-11-19T04:07:34.515Z,15.40
2017-11-19T04:10:02.826Z,9.17
2017-11-19T04:12:31.167Z,10.13
2017-11-19T04:14:59.489Z,19.47
2017-11-19T04:17:27.788Z,16.63
2017-11-19T04:19:56.862Z,15.90
2017-11-19T04:22:25.162Z,15.13
2017-11-19T04:24:54.236Z,22.17
2017-11-19T04:27:22.563Z,25.80
2017-11-19T04:29:50.863Z,13.90
2017-11-19T04:32:19.950Z,13.57
2017-11-19T04:34:48.257Z,13.47
2017-11-19T04:37:16.552Z,20.70
2017-11-19T04:39:45.728Z,15.90
2017-11-19T04:42:14.015Z,20.60
2017-11-19T04:44:42.323Z,14.43
2017-11-19T04:47:10.624Z,13.70
2017-11-19T04:49:38.926Z,17.33
2017-11-19T04:52:07.227Z,17.80
2017-11-19T04:54:36.306Z,15.40
2017-11-19T04:57:04.615Z,23.73
2017-11-19T04:59:33.699Z,16.23
2017-11-19T05:02:02.862Z,19.33
2017-11-19T05:04:31.162Z,27.90
2017-11-19T05:06:59.477Z,18.37
2017-11-19T05:09:27.806Z,24.03
2017-11-19T05:11:56.099Z,16.97
2017-11-19T05:14:25.182Z,18.30
2017-11-19T05:16:53.481Z,24.50
2017-11-19T05:19:22.547Z,19.27
2017-11-19T05:21:50.877Z,20.70
2017-11-19T05:24:19.178Z,25.00
2017-11-19T05:26:47.479Z,13.80
2017-11-19T05:29:15.785Z,18.97
2017-11-19T05:31:44.854Z,20.27
2017-11-19T05:34:13.146Z,18.93
2017-11-19T05:36:41.454Z,15.83
2017-11-19T05:39:14.706Z,16.30
2017-11-19T05:41:43.022Z,24.03
2017-11-19T05:44:11.318Z,16.27
2017-11-19T05:46:39.626Z,12.30
2017-11-19T05:49:07.926Z,17.93
2017-11-19T05:51:37.031Z,17.43
2017-11-19T05:54:06.091Z,28.17
2017-11-19T05:56:34.427Z,11.20
2017-11-19T05:59:03.467Z,14.03
2017-11-19T06:01:31.773Z,13.50
2017-11-19T06:04:00.831Z,23.20
2017-11-19T06:06:29.134Z,18.50
2017-11-19T06:08:57.426Z,13.93
2017-11-19T06:11:26.490Z,18.80
2017-11-19T06:13:54.788Z,11.37
2017-11-19T06:16:23.863Z,23.07
2017-11-19T06:18:52.154Z,15.43
2017-11-19T06:21:21.242Z,15.63
2017-11-19T06:23:49.534Z,22.07
2017-11-19T06:26:18.602Z,14.27
2017-11-19T06:28:46.907Z,18.13
2017-11-19T06:31:15.973Z,14.13
2017-11-19T06:33:44.272Z,15.90
2017-11-19T06:36:12.578Z,15.00
2017-11-19T06:38:40.899Z,14.87
2017-11-19T06:41:09.209Z,12.17
2017-11-19T06:43:38.265Z,14.47
2017-11-19T06:46:06.570Z,13.87
2017-11-19T06:48:34.864Z,14.90
2017-11-19T06:51:03.937Z,22.37
2017-11-19T06:53:32.233Z,16.70
2017-11-19T06:56:01.302Z,12.10
2017-11-19T06:58:29.648Z,13.80
2017-11-19T07:00:57.952Z,13.73
2017-11-19T07:03:26.250Z,10.20
2017-11-19T07:05:54.846Z,10.83
2017-11-19T07:08:23.906Z,13.70
2017-11-19T07:10:52.214Z,17.17
2017-11-19T07:13:21.274Z,10.63
2017-11-19T07:15:49.575Z,15.60
2017-11-19T07:18:17.874Z,8.63
2017-11-19T07:20:46.942Z,15.43
2017-11-19T07:23:15.229Z,7.93
2017-11-19T07:25:43.533Z,8.67
2017-11-19T07:28:11.830Z,18.33
2017-11-19T07:30:40.126Z,8.63
2017-11-19T07:33:08.414Z,6.13
2017-11-19T07:35:36.721Z,8.23
2017-11-19T07:38:05.789Z,16.60
2017-11-19T07:40:34.106Z,16.57
2017-11-19T07:43:02.401Z,11.03
2017-11-19T07:45:30.729Z,9.60
2017-11-19T07:47:59.030Z,8.53
2017-11-19T07:50:28.107Z,14.67
2017-11-19T07:52:56.406Z,18.57
2017-11-19T07:55:25.501Z,10.50
2017-11-19T07:57:54.559Z,8.50
2017-11-19T08:00:22.862Z,10.50
2017-11-19T08:02:51.946Z,10.10
2017-11-19T08:05:20.242Z,12.13
2017-11-19T08:07:49.314Z,12.83
2017-11-19T08:10:17.613Z,6.67
2017-11-19T08:12:46.683Z,8.43
2017-11-19T08:15:14.978Z,11.10
2017-11-19T08:17:44.053Z,9.03
2017-11-19T08:20:12.357Z,13.83
2017-11-19T08:22:41.434Z,9.90
2017-11-19T08:25:09.732Z,11.40
2017-11-19T08:27:38.046Z,15.50
2017-11-19T08:30:06.338Z,13.07
2017-11-19T08:32:34.646Z,10.10
2017-11-19T08:35:03.710Z,8.47
2017-11-19T08:37:32.029Z,9.00
2017-11-19T08:40:01.091Z,12.20
2017-11-19T08:42:29.395Z,7.97
2017-11-19T08:44:58.449Z,9.97
2017-11-19T08:47:26.754Z,8.47
2017-11-19T08:49:55.084Z,9.60
2017-11-19T08:52:23.383Z,18.67
2017-11-19T08:54:51.679Z,7.60
2017-11-19T08:57:19.986Z,13.60
2017-11-19T08:59:48.287Z,10.43
2017-11-19T09:02:16.590Z,12.70
2017-11-19T09:04:44.890Z,8.67
2017-11-19T09:07:13.193Z,9.83
2017-11-19T09:09:42.248Z,14.83
2017-11-19T09:12:10.546Z,6.60
2017-11-19T09:14:38.847Z,7.70
2017-11-19T09:17:07.154Z,11.93
2017-11-19T09:19:35.434Z,8.60
2017-11-19T09:22:03.729Z,8.17
2017-11-19T09:24:32.027Z,20.50
2017-11-19T09:27:00.326Z,8.40
2017-11-19T09:29:29.382Z,10.73
2017-11-19T09:31:57.715Z,12.87
2017-11-19T09:34:26.007Z,11.17
2017-11-19T09:36:54.311Z,19.50
2017-11-19T09:39:22.617Z,6.87
2017-11-19T09:41:51.679Z,7.67
2017-11-19T09:44:19.978Z,10.27
2017-11-19T09:46:48.285Z,7.87
2017-11-19T09:49:16.582Z,7.63
2017-11-19T09:51:44.899Z,19.13
2017-11-19T09:54:13.205Z,11.13
2017-11-19T09:56:42.277Z,13.73
2017-11-19T09:59:10.578Z,14.47
2017-11-19T10:01:39.666Z,7.37
2017-11-19T10:04:08.726Z,25.50
2017-11-19T10:06:37.022Z,12.53
2017-11-19T10:09:05.318Z,9.57
2017-11-19T10:11:34.400Z,6.93
2017-11-19T10:14:02.731Z,13.87
2017-11-19T10:16:31.031Z,8.97
2017-11-19T10:18:59.361Z,6.87
2017-11-19T10:21:27.652Z,11.27
2017-11-19T10:23:55.949Z,5.83
2017-11-19T10:26:24.246Z,10.67
2017-11-19T10:28:52.558Z,7.30
2017-11-19T10:31:21.623Z,12.40
2017-11-19T10:33:49.942Z,9.13
2017-11-19T10:36:18.258Z,8.27
2017-11-19T10:38:46.559Z,5.83
2017-11-19T10:41:14.861Z,8.23
2017-11-19T10:43:43.929Z,6.00
2017-11-19T10:46:12.231Z,6.30
2017-11-19T10:48:41.313Z,8.43
2017-11-19T10:51:10.375Z,9.70
2017-11-19T10:53:38.686Z,16.07
2017-11-19T10:56:07.774Z,11.00
2017-11-19T10:58:36.849Z,5.80
2017-11-19T11:01:05.150Z,7.27
2017-11-19T11:03:33.453Z,8.00
2017-11-19T11:06:01.755Z,5.57
2017-11-19T11:08:30.061Z,5.60
2017-11-19T11:10:58.363Z,6.60
2017-11-19T11:13:27.439Z,5.50
2017-11-19T11:15:55.748Z,5.10
2017-11-19T11:18:24.822Z,8.93
2017-11-19T11:20:53.125Z,6.00
2017-11-19T11:23:21.443Z,3.60
2017-11-19T11:25:49.740Z,5.63
2017-11-19T11:28:18.062Z,7.47
2017-11-19T11:30:46.346Z,3.77
2017-11-19T11:33:14.646Z,2.73
2017-11-19T11:35:42.942Z,7.13
2017-11-19T11:38:11.264Z,3.37
2017-11-19T11:40:39.552Z,2.10
2017-11-19T11:43:07.896Z,3.10
2017-11-19T11:45:36.222Z,2.93
2017-11-19T11:48:04.529Z,5.33
2017-11-19T11:50:32.892Z,8.00
2017-11-19T11:53:01.200Z,6.20
2017-11-19T11:55:29.497Z,7.60
2017-11-19T11:57:58.569Z,3.00
2017-11-19T12:00:26.865Z,6.23
2017-11-19T12:02:55.162Z,2.20
2017-11-19T12:05:23.452Z,8.63
2017-11-19T12:07:51.755Z,2.83
2017-11-19T12:10:20.049Z,3.93
2017-11-19T12:12:48.350Z,4.20
2017-11-19T12:15:17.410Z,4.23
2017-11-19T12:17:45.726Z,2.80
2017-11-19T12:20:14.794Z,6.17
2017-11-19T12:22:43.106Z,6.93
2017-11-19T12:25:11.404Z,2.10
2017-11-19T12:27:39.746Z,5.83
2017-11-19T12:30:08.872Z,8.30
2017-11-19T12:32:37.180Z,5.87
2017-11-19T12:35:05.728Z,5.93
2017-11-19T12:37:34.054Z,14.07
2017-11-19T12:40:02.350Z,3.90
2017-11-19T12:42:30.645Z,6.70
2017-11-19T12:44:58.966Z,3.93
2017-11-19T12:47:27.261Z,4.10
2017-11-19T12:49:55.570Z,6.30
2017-11-19T12:52:24.633Z,3.23
2017-11-19T12:54:52.937Z,6.07
2017-11-19T12:57:22.014Z,3.17
2017-11-19T12:59:50.338Z,2.20
2017-11-19T13:02:18.639Z,3.83
2017-11-19T13:04:46.954Z,4.87
2017-11-19T13:07:15.249Z,1.47
2017-11-19T13:09:43.566Z,9.03
2017-11-19T13:12:11.881Z,2.83
2017-11-19T13:14:40.181Z,2.80
2017-11-19T13:17:09.242Z,7.13
2017-11-19T13:19:37.549Z,7.30
2017-11-19T13:22:06.601Z,4.23
2017-11-19T13:24:34.912Z,7.37
2017-11-19T13:27:03.974Z,3.53
2017-11-19T13:29:33.043Z,7.30
2017-11-19T13:32:01.346Z,7.07
2017-11-19T13:34:29.656Z,11.93
2017-11-19T13:36:58.717Z,5.83
2017-11-19T13:39:27.026Z,11.20
2017-11-19T13:41:56.090Z,10.37
2017-11-19T13:44:24.465Z,9.20
2017-11-19T13:46:52.754Z,3.23
2017-11-19T13:49:21.053Z,9.77
2017-11-19T13:51:50.199Z,8.87
2017-11-19T13:54:18.507Z,9.07
2017-11-19T13:56:46.803Z,9.63
2017-11-19T13:59:15.885Z,13.90
2017-11-19T14:01:44.180Z,8.73
2017-11-19T14:04:13.259Z,14.03
2017-11-19T14:06:41.555Z,12.03
2017-11-19T14:09:10.630Z,11.50
2017-11-19T14:11:38.923Z,5.50
2017-11-19T14:14:07.999Z,6.33
2017-11-19T14:16:36.295Z,14.30
2017-11-19T14:19:05.370Z,10.73
2017-11-19T14:21:33.666Z,5.40
2017-11-19T14:24:01.982Z,13.30
2017-11-19T14:26:30.277Z,7.40
2017-11-19T14:28:58.575Z,9.63
2017-11-19T14:31:26.929Z,7.50
2017-11-19T14:33:55.230Z,7.73
2017-11-19T14:36:23.526Z,10.47
2017-11-19T14:38:52.603Z,9.33
2017-11-19T14:41:20.902Z,6.80
2017-11-19T14:43:50.041Z,13.10
2017-11-19T14:46:18.326Z,9.83
2017-11-19T14:48:46.654Z,7.80
2017-11-19T14:51:15.711Z,17.03
2017-11-19T14:53:44.023Z,8.17
2017-11-19T14:56:13.083Z,10.97
2017-11-19T14:58:41.406Z,8.17
2017-11-19T15:01:10.476Z,6.13
2017-11-19T15:03:38.775Z,8.47
2017-11-19T15:06:07.911Z,6.33
2017-11-19T15:08:36.220Z,9.70
2017-11-19T15:11:04.518Z,4.17
2017-11-19T15:13:33.593Z,5.13
2017-11-19T15:16:01.885Z,5.67
2017-11-19T15:18:30.237Z,6.23
2017-11-19T15:20:58.557Z,4.30
2017-11-19T15:23:26.852Z,4.77
2017-11-19T15:25:55.154Z,3.80
2017-11-19T15:28:23.444Z,3.67
2017-11-19T15:30:51.742Z,6.07
2017-11-19T15:33:20.042Z,5.90
2017-11-19T15:35:49.110Z,4.73
2017-11-19T15:38:17.410Z,3.83
2017-11-19T15:40:46.495Z,6.87
2017-11-19T15:43:15.558Z,9.20
2017-11-19T15:45:43.857Z,3.77
2017-11-19T15:48:12.154Z,7.73
2017-11-19T15:50:41.238Z,5.47
2017-11-19T15:53:10.302Z,13.00
2017-11-19T15:55:38.626Z,3.90
2017-11-19T15:58:07.680Z,5.40
2017-11-19T16:00:36.774Z,5.13
2017-11-19T16:03:05.086Z,7.23
2017-11-19T16:05:34.202Z,8.93
2017-11-19T16:08:02.499Z,7.47
2017-11-19T16:10:30.826Z,6.53
2017-11-19T16:12:59.130Z,8.47
2017-11-19T16:15:27.462Z,9.73
2017-11-19T16:17:55.762Z,8.13
2017-11-19T16:20:24.827Z,5.80
2017-11-19T16:22:53.130Z,10.07
2017-11-19T16:25:22.946Z,5.27
2017-11-19T16:27:51.241Z,6.30
2017-11-19T16:30:19.555Z,7.27
2017-11-19T16:32:47.856Z,6.13
2017-11-19T16:35:16.179Z,13.43
2017-11-19T16:37:44.474Z,9.47
2017-11-19T16:40:12.795Z,10.57
2017-11-19T16:42:41.106Z,14.13
2017-11-19T16:45:09.511Z,15.57
2017-11-19T16:47:37.814Z,12.80
2017-11-19T16:50:06.124Z,12.27
2017-11-19T16:52:35.190Z,12.33
2017-11-19T16:55:03.561Z,7.87
2017-11-19T16:57:31.866Z,6.30
2017-11-19T17:00:00.184Z,12.13
2017-11-19T17:02:28.490Z,6.40
2017-11-19T17:04:56.886Z,4.70
2017-11-19T17:07:25.186Z,5.47
2017-11-19T17:09:54.259Z,4.20
2017-11-19T17:12:22.621Z,3.07
2017-11-19T17:14:50.951Z,5.97
2017-11-19T17:17:19.256Z,6.73
2017-11-19T17:19:48.338Z,6.70
2017-11-19T17:22:16.643Z,6.70
2017-11-19T17:24:44.942Z,4.50
2017-11-19T17:27:13.261Z,6.97
2017-11-19T17:29:41.584Z,7.33
2017-11-19T17:32:09.903Z,2.80
2017-11-19T17:34:38.214Z,5.73
2017-11-19T17:37:06.520Z,11.60
2017-11-19T17:39:34.825Z,5.70
2017-11-19T17:42:03.903Z,7.50
2017-11-19T17:44:32.221Z,4.20
2017-11-19T17:47:00.530Z,2.20
2017-11-19T17:49:28.826Z,3.60
2017-11-19T17:51:57.169Z,5.50
2017-11-19T17:54:25.505Z,2.13
2017-11-19T17:56:54.579Z,5.20
2017-11-19T17:59:22.887Z,1.90
2017-11-19T18:01:51.980Z,3.60
2017-11-19T18:04:21.047Z,3.60
2017-11-19T18:06:49.355Z,7.73
2017-11-19T18:09:18.415Z,3.67
2017-11-19T18:11:46.715Z,1.70
2017-11-19T18:14:15.770Z,4.50
2017-11-19T18:16:44.070Z,4.63
2017-11-19T18:19:13.181Z,4.57
2017-11-19T18:21:42.255Z,6.10
2017-11-19T18:24:10.554Z,3.93
2017-11-19T18:26:39.643Z,4.23
2017-11-19T18:29:08.717Z,6.27
2017-11-19T18:31:37.065Z,3.97
2017-11-19T18:34:05.375Z,3.13
2017-11-19T18:36:33.699Z,3.13
2017-11-19T18:39:02.000Z,1.93
2017-11-19T18:41:30.290Z,2.10
2017-11-19T18:43:58.694Z,5.03
2017-11-19T18:46:26.995Z,11.90
2017-11-19T18:48:56.082Z,2.00
2017-11-19T18:51:25.137Z,3.00
2017-11-19T18:53:53.433Z,4.73
2017-11-19T18:56:21.723Z,5.80
2017-11-19T18:58:50.052Z,5.10
2017-11-19T19:01:18.337Z,3.17
2017-11-19T19:03:46.638Z,3.40
2017-11-19T19:06:14.930Z,6.47
2017-11-19T19:08:43.233Z,4.80
2017-11-19T19:11:12.293Z,3.57
2017-11-19T19:13:40.606Z,3.60
2017-11-19T19:16:08.902Z,3.13
2017-11-19T19:18:37.202Z,3.13
2017-11-19T19:21:05.489Z,1.93
2017-11-19T19:23:33.791Z,1.73
2017-11-19T19:26:02.861Z,5.37
2017-11-19T19:28:31.173Z,3.33
2017-11-19T19:31:00.250Z,10.33
2017-11-19T19:33:28.569Z,5.33
2017-11-19T19:35:56.866Z,4.90
2017-11-19T19:38:25.181Z,6.37
2017-11-19T19:40:53.472Z,8.83
2017-11-19T19:43:22.539Z,4.97
2017-11-19T19:45:50.843Z,7.77
2017-11-19T19:48:19.912Z,3.60
2017-11-19T19:50:48.223Z,5.90
2017-11-19T19:53:17.293Z,7.57
2017-11-19T19:55:45.591Z,9.87
2017-11-19T19:58:14.679Z,6.53
2017-11-19T20:00:43.738Z,5.63
2017-11-19T20:03:12.061Z,4.60
2017-11-19T20:05:41.144Z,8.13
2017-11-19T20:08:09.446Z,2.33
2017-11-19T20:10:37.742Z,4.90
2017-11-19T20:13:06.075Z,6.63
2017-11-19T20:15:34.362Z,9.50
2017-11-19T20:18:03.434Z,8.20
2017-11-19T20:20:31.758Z,8.43
2017-11-19T20:23:00.070Z,8.30
2017-11-19T20:25:28.378Z,8.30
2017-11-19T20:27:56.682Z,10.93
2017-11-19T20:30:24.984Z,5.87
2017-11-19T20:32:53.301Z,11.80
2017-11-19T20:35:21.639Z,10.40
2017-11-19T20:37:49.923Z,11.07
2017-11-19T20:40:18.223Z,11.80
2017-11-19T20:42:47.325Z,8.20
2017-11-19T20:45:15.637Z,7.20
2017-11-19T20:47:44.710Z,14.20
2017-11-19T20:50:13.002Z,8.73
2017-11-19T20:52:42.069Z,3.97
2017-11-19T20:55:10.357Z,3.33
2017-11-19T20:57:39.447Z,10.03
2017-11-19T21:00:07.746Z,9.60
2017-11-19T21:02:36.066Z,10.70
2017-11-19T21:05:04.371Z,8.93
2017-11-19T21:07:32.678Z,4.50
2017-11-19T21:10:01.736Z,18.40
2017-11-19T21:12:30.038Z,7.20
2017-11-19T21:14:59.105Z,7.60
2017-11-19T21:17:27.412Z,6.23
2017-11-19T21:19:56.474Z,6.13
2017-11-19T21:22:24.787Z,5.13
2017-11-19T21:24:53.847Z,6.43
2017-11-19T21:27:22.162Z,5.63
2017-11-19T21:29:51.222Z,6.83
2017-11-19T21:32:19.545Z,5.73
2017-11-19T21:34:47.842Z,6.10
2017-11-19T21:37:16.162Z,4.00
2017-11-19T21:39:44.461Z,6.90
2017-11-19T21:42:13.538Z,2.80
2017-11-19T21:44:42.612Z,4.70
2017-11-19T21:47:10.955Z,4.20
2017-11-19T21:49:39.261Z,2.50
2017-11-19T21:52:07.566Z,8.80
2017-11-19T21:54:35.878Z,3.30
2017-11-19T21:57:04.201Z,5.60
2017-11-19T21:59:32.511Z,12.70
2017-11-19T22:02:01.574Z,4.90
2017-11-19T22:04:29.889Z,6.83
2017-11-19T22:06:58.951Z,6.10
2017-11-19T22:09:27.254Z,9.50
2017-11-19T22:11:56.313Z,4.50
2017-11-19T22:14:24.627Z,5.90
2017-11-19T22:16:53.696Z,9.87
2017-11-19T22:19:22.025Z,3.43
2017-11-19T22:21:50.325Z,9.70
2017-11-19T22:24:18.629Z,10.60
2017-11-19T22:26:46.975Z,3.43
2017-11-19T22:29:15.278Z,2.33
2017-11-19T22:31:43.579Z,5.00
2017-11-19T22:34:11.899Z,3.67
2017-11-19T22:36:40.197Z,2.60
2017-11-19T22:39:08.502Z,4.53
2017-11-19T22:41:36.814Z,5.50
2017-11-19T22:44:05.142Z,5.07
2017-11-19T22:46:33.442Z,6.23
2017-11-19T22:49:01.737Z,6.93
2017-11-19T22:51:30.048Z,4.10
2017-11-19T22:53:58.354Z,4.73
2017-11-19T22:56:26.664Z,7.20
2017-11-19T22:58:55.741Z,6.00
2017-11-19T23:01:24.055Z,6.23
2017-11-19T23:03:52.369Z,4.07
2017-11-19T23:06:20.666Z,5.53
2017-11-19T23:08:48.969Z,5.63
2017-11-19T23:11:18.733Z,3.63
2017-11-19T23:13:47.037Z,3.10
2017-11-19T23:16:15.325Z,5.10
2017-11-19T23:18:44.391Z,3.07
2017-11-19T23:21:12.705Z,7.53
2017-11-19T23:23:41.787Z,4.80
2017-11-19T23:26:10.085Z,5.77
2017-11-19T23:28:39.153Z,2.33
2017-11-19T23:31:07.442Z,5.73
2017-11-19T23:33:36.515Z,1.90
2017-11-19T23:36:05.630Z,8.90
2017-11-19T23:38:33.935Z,7.70
2017-11-19T23:41:02.249Z,3.93
2017-11-19T23:43:30.570Z,6.00
2017-11-19T23:45:59.635Z,4.33
2017-11-19T23:48:27.965Z,6.30
2017-11-19T23:50:56.261Z,2.50
2017-11-19T23:53:24.561Z,12.10
2017-11-19T23:55:52.859Z,5.70
2017-11-19T23:58:21.165Z,10.13
